Time;durP1;ratioP1;P1;durP2;ratioP2;P2;SDS_P1;SDS_P2;PMS_P1;PMS_P2;Temp;Humidity;BMP_temperature;BMP_pressure;BME280_temperature;BME280_humidity;BME280_pressure;Samples;Min_cycle;Max_cycle;Signal;HPM_P1;HPM_P2
2023/10/13 00:01:58;;;;;;;56.78;30.25;;;14.70;99.90;;;;;;6268333;22;20417;-86
2023/10/13 00:04:35;;;;;;;70.72;32.45;;;14.80;99.90;;;;;;6267963;22;20250;-85
2023/10/13 00:07:02;;;;;;;72.13;32.28;;;14.80;99.90;;;;;;6268769;22;20501;-86
2023/10/13 00:09:38;;;;;;;68.03;32.47;;;14.90;99.90;;;;;;6292409;22;20019;-86
2023/10/13 00:12:14;;;;;;;62.47;31.38;;;14.90;99.90;;;;;;6267753;22;20087;-85
2023/10/13 00:14:41;;;;;;;66.38;30.77;;;15.00;99.90;;;;;;6293702;22;20181;-86
2023/10/13 00:17:07;;;;;;;67.75;32.13;;;15.00;99.90;;;;;;6267593;22;20015;-86
2023/10/13 00:19:45;;;;;;;61.50;30.65;;;15.00;99.90;;;;;;6267717;22;20479;-86
2023/10/13 00:22:19;;;;;;;58.75;28.85;;;15.00;99.90;;;;;;6268366;22;20007;-86
2023/10/13 00:24:45;;;;;;;74.35;31.60;;;15.10;99.90;;;;;;6268229;22;20298;-86
2023/10/13 00:32:54;;;;;;;65.10;30.80;;;15.20;99.90;;;;;;6295771;22;20392;-86
2023/10/13 00:35:28;;;;;;;58.10;29.42;;;15.30;99.90;;;;;;6270275;22;20007;-86
2023/10/13 00:37:59;;;;;;;56.28;29.70;;;15.20;99.90;;;;;;6294627;22;20530;-86
2023/10/13 00:45:57;;;;;;;62.40;29.45;;;15.40;99.90;;;;;;6295447;22;20288;-86
2023/10/13 00:48:33;;;;;;;50.83;26.90;;;15.50;99.90;;;;;;6270132;22;20015;-86
2023/10/13 00:51:06;;;;;;;79.85;30.98;;;15.50;99.90;;;;;;6270028;22;20117;-86
2023/10/13 00:53:44;;;;;;;69.90;31.42;;;15.50;99.90;;;;;;6269989;22;20436;-86
2023/10/13 00:56:21;;;;;;;53.42;27.77;;;15.50;99.90;;;;;;6295708;22;20252;-86
2023/10/13 00:58:47;;;;;;;50.15;27.33;;;15.60;99.90;;;;;;6269193;22;20015;-85
2023/10/13 01:01:18;;;;;;;56.75;26.90;;;15.60;99.90;;;;;;6269670;22;20115;-86
2023/10/13 01:03:48;;;;;;;51.17;27.17;;;15.60;99.90;;;;;;6269373;22;20019;-86
2023/10/13 01:06:16;;;;;;;54.65;27.20;;;15.70;99.90;;;;;;6266080;22;20782;-86
2023/10/13 01:08:44;;;;;;;56.47;26.38;;;15.70;99.90;;;;;;6238098;22;20098;-86
2023/10/13 01:11:10;;;;;;;42.83;24.92;;;15.80;99.90;;;;;;6213643;22;20012;-85
2023/10/13 01:13:36;;;;;;;51.92;26.48;;;15.80;99.90;;;;;;6213450;22;20094;-86
2023/10/13 01:16:07;;;;;;;47.67;25.42;;;15.80;99.90;;;;;;6238511;22;20511;-86
2023/10/13 01:18:39;;;;;;;53.85;25.58;;;15.80;99.90;;;;;;6239212;22;20506;-86
2023/10/13 01:21:07;;;;;;;48.53;25.08;;;15.80;99.90;;;;;;6214169;22;20744;-86
2023/10/13 01:23:38;;;;;;;49.15;25.13;;;16.00;99.90;;;;;;6213338;22;20016;-86
2023/10/13 01:26:05;;;;;;;58.13;24.73;;;15.90;99.90;;;;;;6239732;22;20653;-86
2023/10/13 01:28:44;;;;;;;44.70;23.25;;;15.90;99.90;;;;;;6212377;22;20026;-86
2023/10/13 01:31:13;;;;;;;44.90;22.38;;;15.90;99.90;;;;;;6213627;22;20012;-86
2023/10/13 01:33:38;;;;;;;43.78;23.63;;;15.90;99.90;;;;;;6238354;22;20061;-85
2023/10/13 01:36:10;;;;;;;40.65;23.48;;;15.90;99.90;;;;;;6212923;22;20008;-86
2023/10/13 01:38:37;;;;;;;43.60;23.23;;;16.00;99.90;;;;;;6212308;22;20503;-86
2023/10/13 01:41:08;;;;;;;41.40;22.05;;;16.00;99.90;;;;;;6212739;22;20306;-86
2023/10/13 01:43:34;;;;;;;36.35;22.10;;;16.00;99.90;;;;;;6212706;22;20027;-86
2023/10/13 01:46:02;;;;;;;34.97;20.67;;;16.10;99.90;;;;;;6213143;22;20023;-86
2023/10/13 01:48:28;;;;;;;41.20;21.05;;;16.00;99.90;;;;;;6238909;22;20061;-86
2023/10/13 01:50:59;;;;;;;35.88;21.08;;;16.10;99.90;;;;;;6238351;22;20027;-85
2023/10/13 01:53:28;;;;;;;33.10;20.25;;;16.00;99.90;;;;;;6211965;22;20035;-86
2023/10/13 01:55:57;;;;;;;37.10;19.88;;;16.10;99.90;;;;;;6213361;22;20007;-87
2023/10/13 01:58:25;;;;;;;37.40;19.85;;;16.20;99.90;;;;;;6212886;22;20321;-86
2023/10/13 02:00:52;;;;;;;34.42;19.42;;;16.10;99.90;;;;;;6238541;22;20042;-86
2023/10/13 02:03:18;;;;;;;34.35;19.60;;;16.10;99.90;;;;;;6238711;22;20051;-86
2023/10/13 02:05:48;;;;;;;39.67;20.67;;;16.10;99.90;;;;;;6212995;22;20352;-86
2023/10/13 02:08:25;;;;;;;33.95;19.55;;;16.20;99.90;;;;;;6265339;22;20019;-86
2023/10/13 02:10:52;;;;;;;28.52;18.00;;;16.20;99.90;;;;;;6269096;22;20098;-86
2023/10/13 02:13:22;;;;;;;33.25;18.83;;;16.20;99.90;;;;;;6268044;22;20476;-85
2023/10/13 02:15:51;;;;;;;31.73;17.13;;;16.20;99.90;;;;;;6269128;22;20325;-86
2023/10/13 02:19:03;;;;;;;28.20;17.30;;;16.20;99.90;;;;;;6269243;22;20554;-86
2023/10/13 02:21:14;;;;;;;30.38;17.45;;;16.20;99.90;;;;;;6282702;22;20436;-85
2023/10/13 02:23:44;;;;;;;31.70;18.13;;;16.20;99.90;;;;;;6293726;22;20027;-85
2023/10/13 02:26:21;;;;;;;27.58;16.25;;;16.20;99.90;;;;;;6295752;22;20026;-86
2023/10/13 02:28:56;;;;;;;26.13;16.05;;;16.20;99.90;;;;;;6268176;22;20466;-87
2023/10/13 02:31:24;;;;;;;34.22;17.13;;;16.30;99.90;;;;;;6294724;22;20027;-86
2023/10/13 02:33:50;;;;;;;30.58;16.48;;;16.30;99.90;;;;;;6268094;22;20015;-87
2023/10/13 02:36:23;;;;;;;25.67;15.73;;;16.20;99.90;;;;;;6268640;22;20264;-86
2023/10/13 02:38:52;;;;;;;29.50;17.27;;;16.30;99.90;;;;;;6267113;22;20106;-86
2023/10/13 02:41:25;;;;;;;35.75;18.30;;;16.20;99.90;;;;;;6268954;22;20317;-86
2023/10/13 02:43:52;;;;;;;46.78;21.13;;;16.40;99.90;;;;;;6293540;22;20342;-86
2023/10/13 02:46:21;;;;;;;42.30;21.10;;;16.40;99.90;;;;;;6294533;22;20019;-86
2023/10/13 02:48:52;;;;;;;45.30;22.17;;;16.30;99.90;;;;;;6267952;22;20011;-86
2023/10/13 02:51:31;;;;;;;39.30;22.05;;;16.30;99.90;;;;;;6294797;22;20019;-87
2023/10/13 02:54:02;;;;;;;44.00;22.30;;;16.40;99.90;;;;;;6267331;22;20076;-86
2023/10/13 02:56:29;;;;;;;50.15;23.98;;;16.40;99.90;;;;;;6269006;22;20014;-86
2023/10/13 02:59:04;;;;;;;46.45;24.77;;;16.40;99.90;;;;;;6267834;22;20016;-86
2023/10/13 03:01:35;;;;;;;46.83;23.80;;;16.40;99.90;;;;;;6293760;22;20402;-86
2023/10/13 03:04:08;;;;;;;47.47;24.23;;;16.40;99.90;;;;;;6267913;22;20475;-86
2023/10/13 03:06:35;;;;;;;42.00;23.85;;;16.40;99.90;;;;;;6268270;22;20083;-86
2023/10/13 03:09:18;;;;;;;42.97;23.77;;;16.40;99.90;;;;;;6266632;22;20073;-85
2023/10/13 03:11:48;;;;;;;41.33;24.55;;;16.40;99.90;;;;;;6268044;22;20023;-86
2023/10/13 03:14:31;;;;;;;42.10;23.73;;;16.40;99.90;;;;;;6267727;22;20445;-86
2023/10/13 03:17:04;;;;;;;39.97;23.33;;;16.40;99.90;;;;;;6268336;22;20285;-86
2023/10/13 03:19:34;;;;;;;48.05;23.58;;;16.50;99.90;;;;;;6293336;22;20015;-86
2023/10/13 03:22:10;;;;;;;32.22;21.73;;;16.40;99.90;;;;;;6268973;22;20018;-86
2023/10/13 03:24:46;;;;;;;36.13;22.17;;;16.40;99.90;;;;;;6292997;22;20011;-86
2023/10/13 03:27:16;;;;;;;30.23;18.50;;;16.40;99.90;;;;;;6293132;22;20104;-85
2023/10/13 03:29:43;;;;;;;29.70;18.20;;;16.50;99.90;;;;;;6267865;22;20015;-85
2023/10/13 03:32:16;;;;;;;29.23;17.58;;;16.40;99.90;;;;;;6268315;22;20084;-86
2023/10/13 03:37:38;;;;;;;25.73;14.93;;;16.40;99.90;;;;;;6293308;22;20389;-86
2023/10/13 03:40:33;;;;;;;24.13;14.18;;;16.40;99.90;;;;;;6267522;22;20094;-85
2023/10/13 03:43:29;;;;;;;22.58;14.60;;;16.40;99.90;;;;;;6293201;22;20019;-86
2023/10/13 03:45:52;;;;;;;21.88;14.60;;;16.40;99.90;;;;;;6289828;22;20483;-85
2023/10/13 03:51:03;;;;;;;29.60;15.80;;;16.30;99.90;;;;;;6293935;22;20015;-86
2023/10/13 03:53:33;;;;;;;29.92;17.23;;;16.30;99.90;;;;;;6267716;22;20038;-86
2023/10/13 03:56:26;;;;;;;26.60;16.27;;;16.40;99.90;;;;;;6268996;22;20363;-85
2023/10/13 03:59:02;;;;;;;29.02;17.15;;;16.40;99.90;;;;;;6293758;22;20086;-85
2023/10/13 04:01:34;;;;;;;29.33;17.98;;;16.30;99.90;;;;;;6296813;22;20334;-86
2023/10/13 04:04:09;;;;;;;28.58;17.60;;;16.30;99.90;;;;;;6270173;22;20019;-85
2023/10/13 04:15:14;;;;;;;29.52;17.05;;;16.40;99.90;;;;;;6295655;22;20080;-86
2023/10/13 04:17:14;;;;;;;27.33;16.33;;;16.40;99.90;;;;;;6295431;22;20011;-86
2023/10/13 04:38:59;;;;;;;25.88;15.20;;;16.40;99.90;;;;;;6294297;22;20091;-86
2023/10/13 04:41:57;;;;;;;25.95;15.07;;;16.30;99.90;;;;;;6270717;22;20061;-86
2023/10/13 04:44:48;;;;;;;28.77;16.08;;;16.40;99.90;;;;;;6294689;22;20090;-86
2023/10/13 04:47:09;;;;;;;28.17;15.88;;;16.50;99.90;;;;;;6295280;22;20026;-86
2023/10/13 05:02:53;;;;;;;25.52;15.13;;;16.30;99.90;;;;;;6295632;22;20467;-86
2023/10/13 05:05:32;;;;;;;25.10;15.50;;;16.30;99.90;;;;;;6295669;22;20019;-85
2023/10/13 05:46:49;;;;;;;14.88;9.70;;;16.20;99.90;;;;;;6295405;22;20031;-86
2023/10/13 05:51:57;;;;;;;14.00;8.75;;;16.20;99.90;;;;;;6296120;22;20107;-85
2023/10/13 06:28:40;;;;;;;12.85;8.52;;;16.10;99.90;;;;;;6294934;22;20016;-85
2023/10/13 06:30:17;;;;;;;9.13;4.40;;;16.00;99.90;;;;;;6295328;22;20019;-85
2023/10/13 06:32:43;;;;;;;7.22;4.70;;;16.10;99.90;;;;;;6268685;22;20015;-86
2023/10/13 06:35:08;;;;;;;6.70;4.20;;;16.10;99.90;;;;;;6269146;22;20011;-86
2023/10/13 06:37:41;;;;;;;5.47;4.07;;;16.10;99.90;;;;;;6268982;22;20011;-86
2023/10/13 06:43:12;;;;;;;6.68;4.22;;;16.20;99.90;;;;;;6294135;22;20106;-86
2023/10/13 06:45:41;;;;;;;5.60;4.10;;;16.20;99.90;;;;;;6269408;22;20285;-86
2023/10/13 06:48:12;;;;;;;5.65;4.13;;;16.20;99.90;;;;;;6269006;22;20015;-86
2023/10/13 06:50:41;;;;;;;8.25;4.50;;;16.10;99.90;;;;;;6294572;22;20500;-85
2023/10/13 06:53:07;;;;;;;6.03;4.13;;;16.10;99.90;;;;;;6268617;22;20118;-86
2023/10/13 06:55:39;;;;;;;6.80;3.90;;;16.30;99.90;;;;;;6294417;22;20460;-86
2023/10/13 06:58:06;;;;;;;6.75;4.10;;;16.20;99.90;;;;;;6294047;22;20046;-86
2023/10/13 07:00:37;;;;;;;5.07;3.65;;;16.30;99.90;;;;;;6269057;22;20007;-87
2023/10/13 07:03:09;;;;;;;6.07;4.10;;;16.30;99.90;;;;;;6268557;22;20273;-85
2023/10/13 07:05:39;;;;;;;5.15;3.25;;;16.30;99.90;;;;;;6269345;22;20073;-86
2023/10/13 07:08:06;;;;;;;4.88;3.25;;;16.40;99.90;;;;;;6267170;22;20022;-86
2023/10/13 07:10:44;;;;;;;5.68;3.15;;;16.40;99.90;;;;;;6268070;22;20512;-86
2023/10/13 07:13:13;;;;;;;8.88;3.17;;;16.40;99.90;;;;;;6268062;22;20004;-85
2023/10/13 07:15:44;;;;;;;5.63;3.03;;;16.50;99.90;;;;;;6295115;22;20007;-86
2023/10/13 07:18:13;;;;;;;6.68;2.92;;;16.40;99.90;;;;;;6294508;22;20333;-86
2023/10/13 07:20:43;;;;;;;8.95;3.35;;;16.50;99.90;;;;;;6294473;22;20011;-86
2023/10/13 07:23:17;;;;;;;5.80;3.53;;;16.50;99.90;;;;;;6267572;22;20417;-86
2023/10/13 07:25:54;;;;;;;6.60;3.22;;;16.50;99.90;;;;;;6268714;22;20594;-86
2023/10/13 07:28:20;;;;;;;7.75;4.15;;;16.50;99.90;;;;;;6267966;22;20015;-86
2023/10/13 07:31:28;;;;;;;6.88;4.22;;;16.60;99.90;;;;;;6268089;22;20047;-86
2023/10/13 07:33:40;;;;;;;8.57;4.18;;;16.60;99.90;;;;;;6286941;22;20105;-85
2023/10/13 07:36:17;;;;;;;7.35;3.53;;;16.60;99.90;;;;;;6295169;22;20023;-86
2023/10/13 07:38:59;;;;;;;7.00;3.38;;;16.60;99.90;;;;;;6293393;22;20076;-85
2023/10/13 07:41:30;;;;;;;6.35;3.50;;;16.60;99.90;;;;;;6294498;22;20417;-86
2023/10/13 07:43:57;;;;;;;5.38;3.50;;;16.60;99.90;;;;;;6267951;22;20456;-86
2023/10/13 07:46:31;;;;;;;7.28;4.05;;;16.60;99.90;;;;;;6269268;22;20069;-84
2023/10/13 07:49:08;;;;;;;8.57;3.92;;;16.60;99.90;;;;;;6268890;22;20156;-85
2023/10/13 07:51:44;;;;;;;9.07;4.18;;;16.50;99.90;;;;;;6294634;22;20011;-85
2023/10/13 07:54:22;;;;;;;12.57;4.72;;;16.60;99.90;;;;;;6293499;22;20440;-86
2023/10/13 07:56:48;;;;;;;8.73;4.20;;;16.50;99.90;;;;;;6268578;22;20014;-86
2023/10/13 07:59:16;;;;;;;10.43;4.18;;;16.50;99.90;;;;;;6268432;22;20347;-85
2023/10/13 08:01:42;;;;;;;10.48;4.10;;;16.60;99.90;;;;;;6268266;22;20023;-86
2023/10/13 08:04:11;;;;;;;9.57;4.10;;;16.60;99.90;;;;;;6268299;22;20015;-86
2023/10/13 08:06:41;;;;;;;8.57;4.70;;;16.60;99.90;;;;;;6268739;22;20542;-85
2023/10/13 08:09:30;;;;;;;10.13;4.30;;;16.60;99.90;;;;;;6267518;22;20323;-85
2023/10/13 08:11:56;;;;;;;11.52;4.65;;;16.60;99.90;;;;;;6293359;22;20027;-85
2023/10/13 08:14:29;;;;;;;12.30;4.68;;;16.60;99.90;;;;;;6268128;22;20088;-86
2023/10/13 08:17:02;;;;;;;10.77;4.75;;;16.60;99.90;;;;;;6268022;22;20049;-87
2023/10/13 08:19:39;;;;;;;16.00;5.00;;;16.70;99.90;;;;;;6268275;22;20393;-87
2023/10/13 08:48:12;;;;;;;15.63;5.75;;;17.00;99.90;;;;;;6295511;22;20081;-87
2023/10/13 08:53:31;;;;;;;12.80;5.55;;;17.10;99.90;;;;;;6294731;22;20019;-87
2023/10/13 08:56:07;;;;;;;13.38;5.53;;;17.10;99.90;;;;;;6269647;22;20008;-87
2023/10/13 09:01:59;;;;;;;14.32;5.70;;;17.20;99.90;;;;;;6295522;22;20030;-86
2023/10/13 09:04:34;;;;;;;11.82;4.93;;;17.40;99.90;;;;;;6221078;22;20051;-86
2023/10/13 09:12:10;;;;;;;12.18;5.90;;;17.70;99.90;;;;;;6295381;22;20035;-86
2023/10/13 09:14:47;;;;;;;11.25;5.15;;;17.60;99.90;;;;;;6269839;22;20051;-86
2023/10/13 09:17:34;;;;;;;10.43;5.30;;;17.80;99.90;;;;;;6296199;22;20015;-86
2023/10/13 09:19:59;;;;;;;13.23;6.15;;;17.90;99.90;;;;;;6295101;22;20019;-87
2023/10/13 09:22:35;;;;;;;9.25;5.53;;;17.90;99.90;;;;;;6270093;22;20018;-87
2023/10/13 09:25:02;;;;;;;12.32;5.75;;;17.90;99.90;;;;;;6294510;22;20018;-87
2023/10/13 09:27:32;;;;;;;11.50;5.30;;;17.90;99.90;;;;;;6268671;22;20015;-87
2023/10/13 09:30:09;;;;;;;14.05;5.95;;;18.00;99.90;;;;;;6295548;22;20011;-86
2023/10/13 09:32:50;;;;;;;12.15;6.38;;;18.10;99.90;;;;;;6268803;22;20298;-87
2023/10/13 09:35:23;;;;;;;9.98;5.28;;;18.20;99.90;;;;;;6295108;22;20027;-86
2023/10/13 09:37:50;;;;;;;12.52;5.63;;;18.20;99.90;;;;;;6269348;22;20013;-86
2023/10/13 09:43:17;;;;;;;10.77;5.25;;;18.40;99.90;;;;;;6274400;22;20467;-86
2023/10/13 09:48:35;;;;;;;12.30;5.18;;;18.40;99.90;;;;;;6294740;22;20052;-87
2023/10/13 09:51:08;;;;;;;11.60;4.80;;;18.50;99.90;;;;;;6269594;22;20023;-86
2023/10/13 09:53:38;;;;;;;13.60;5.25;;;18.60;99.90;;;;;;6267923;22;20157;-87
2023/10/13 09:56:23;;;;;;;15.80;4.35;;;18.70;99.90;;;;;;6269370;22;20493;-86
2023/10/13 09:59:16;;;;;;;10.35;5.75;;;18.80;99.90;;;;;;6267889;22;20015;-87
2023/10/13 10:01:50;;;;;;;8.07;4.30;;;18.70;99.90;;;;;;6252722;22;20022;-87
2023/10/13 10:04:18;;;;;;;10.13;4.32;;;18.80;99.90;;;;;;6294509;22;20337;-86
2023/10/13 10:06:57;;;;;;;11.70;4.43;;;18.90;99.90;;;;;;6269383;22;20111;-86
2023/10/13 10:09:43;;;;;;;9.02;4.05;;;19.00;99.90;;;;;;6293671;22;20019;-86
2023/10/13 10:12:14;;;;;;;10.32;4.70;;;19.10;99.90;;;;;;6268789;22;20080;-86
2023/10/13 10:14:56;;;;;;;9.90;4.85;;;19.10;99.90;;;;;;6269141;22;20015;-86
2023/10/13 10:17:22;;;;;;;15.02;5.05;;;19.20;99.90;;;;;;6268785;22;20011;-86
2023/10/13 10:19:56;;;;;;;11.32;4.78;;;19.20;99.90;;;;;;6268871;22;20011;-86
2023/10/13 10:22:35;;;;;;;8.93;5.28;;;19.10;99.90;;;;;;6269123;22;20447;-86
2023/10/13 10:25:03;;;;;;;12.43;4.93;;;19.10;99.90;;;;;;6267967;22;20007;-86
2023/10/13 10:27:30;;;;;;;15.57;4.85;;;19.10;99.90;;;;;;6268286;22;20017;-87
2023/10/13 10:29:57;;;;;;;14.32;5.60;;;19.20;99.90;;;;;;6295307;22;20029;-86
2023/10/13 10:32:41;;;;;;;9.85;5.00;;;19.10;99.90;;;;;;6268784;22;20114;-87
2023/10/13 10:35:20;;;;;;;16.50;4.82;;;19.40;99.90;;;;;;6268691;22;20015;-86
2023/10/13 10:37:47;;;;;;;12.32;4.95;;;19.40;99.90;;;;;;6294813;22;20022;-86
2023/10/13 10:43:08;;;;;;;11.85;4.80;;;19.60;99.90;;;;;;6293350;22;20047;-87
2023/10/13 10:45:45;;;;;;;14.13;5.13;;;19.50;99.90;;;;;;6268860;22;20681;-87
2023/10/13 10:48:18;;;;;;;12.63;4.53;;;19.60;99.90;;;;;;6295479;22;20498;-87
2023/10/13 10:50:54;;;;;;;14.95;4.70;;;19.60;99.90;;;;;;6268225;22;20015;-86
2023/10/13 10:53:34;;;;;;;8.70;4.40;;;19.70;99.90;;;;;;6293826;22;20016;-86
2023/10/13 10:56:19;;;;;;;10.95;4.85;;;19.80;99.90;;;;;;6268370;22;20252;-86
2023/10/13 10:58:48;;;;;;;14.30;4.40;;;19.80;99.90;;;;;;6293432;22;20011;-86
2023/10/13 11:01:21;;;;;;;19.25;4.75;;;20.00;99.90;;;;;;6268688;22;20433;-86
2023/10/13 11:03:58;;;;;;;11.88;4.50;;;20.10;99.90;;;;;;6268906;22;20030;-86
2023/10/13 11:06:28;;;;;;;12.02;4.55;;;20.30;99.90;;;;;;6268815;22;20023;-86
2023/10/13 11:09:18;;;;;;;8.93;4.70;;;20.60;99.90;;;;;;6267079;22;20055;-86
2023/10/13 11:11:52;;;;;;;9.73;4.13;;;20.70;99.90;;;;;;6294647;22;20329;-87
2023/10/13 11:14:25;;;;;;;10.27;5.53;;;20.70;99.90;;;;;;6268465;22;20015;-86
2023/10/13 11:16:53;;;;;;;11.77;4.15;;;20.60;99.90;;;;;;6268697;22;20011;-85
2023/10/13 11:19:37;;;;;;;15.50;4.97;;;20.50;99.90;;;;;;6268255;22;20455;-85
2023/10/13 11:22:42;;;;;;;15.45;4.68;;;20.30;99.90;;;;;;6269223;22;20417;-85
2023/10/13 11:25:11;;;;;;;10.32;4.28;;;20.20;99.90;;;;;;6267171;22;20017;-86
2023/10/13 11:30:20;;;;;;;13.45;4.18;;;20.30;99.90;;;;;;6294160;22;20063;-86
2023/10/13 11:32:59;;;;;;;15.35;4.60;;;20.30;99.90;;;;;;6267668;22;20011;-85
2023/10/13 11:35:25;;;;;;;10.32;4.47;;;20.30;99.90;;;;;;6268011;22;20018;-86
2023/10/13 11:38:03;;;;;;;14.30;4.95;;;20.40;99.90;;;;;;6267776;22;20015;-86
2023/10/13 11:40:44;;;;;;;14.38;4.65;;;20.30;99.90;;;;;;6267742;22;20015;-84
2023/10/13 11:43:15;;;;;;;11.93;4.78;;;20.30;99.90;;;;;;6267547;22;20148;-86
2023/10/13 11:46:55;;;;;;;14.73;4.90;;;20.30;99.90;;;;;;6268255;22;20053;-85
2023/10/13 11:48:41;;;;;;;8.90;4.53;;;20.40;99.90;;;;;;6289070;22;20023;-85
2023/10/13 11:51:08;;;;;;;10.75;4.50;;;20.40;99.90;;;;;;6268159;22;20054;-86
2023/10/13 11:53:38;;;;;;;14.90;5.10;;;20.40;99.90;;;;;;6266990;22;20011;-86
2023/10/13 11:56:10;;;;;;;12.65;5.32;;;20.30;99.90;;;;;;6294003;22;20014;-85
2023/10/13 11:58:40;;;;;;;12.20;4.68;;;20.30;99.90;;;;;;6267497;22;20018;-86
2023/10/13 12:09:31;;;;;;;17.13;5.43;;;20.30;99.90;;;;;;6292742;22;20471;-86
2023/10/13 12:12:00;;;;;;;10.50;4.65;;;20.20;99.90;;;;;;6268499;22;20248;-85
2023/10/13 12:14:52;;;;;;;12.50;4.93;;;20.20;99.90;;;;;;6267570;22;20118;-85
2023/10/13 12:17:25;;;;;;;12.73;4.80;;;20.10;99.90;;;;;;6294262;22;20285;-85
2023/10/13 12:19:54;;;;;;;10.55;4.65;;;20.10;99.90;;;;;;6294164;22;20015;-86
2023/10/13 12:22:28;;;;;;;13.23;4.95;;;20.00;99.90;;;;;;6296598;22;20538;-86
2023/10/13 12:24:55;;;;;;;14.70;5.03;;;20.10;99.90;;;;;;6268589;22;20423;-87
2023/10/13 12:27:23;;;;;;;12.93;5.45;;;20.10;99.90;;;;;;6295356;22;20019;-85
2023/10/13 12:29:51;;;;;;;16.45;5.43;;;19.90;99.90;;;;;;6296510;22;20094;-86
2023/10/13 12:32:24;;;;;;;14.65;5.68;;;19.80;99.90;;;;;;6269542;22;20452;-85
2023/10/13 12:51:21;;;;;;;15.45;5.35;;;19.80;99.90;;;;;;6296503;22;20124;-85
2023/10/13 12:53:52;;;;;;;16.25;6.00;;;19.70;99.90;;;;;;6268577;22;20023;-86
2023/10/13 12:56:28;;;;;;;11.73;5.10;;;19.60;99.90;;;;;;6270388;22;20403;-85
2023/10/13 12:58:54;;;;;;;10.18;5.80;;;19.50;99.90;;;;;;6269043;22;20018;-85
2023/10/13 13:01:34;;;;;;;11.02;5.60;;;19.60;99.90;;;;;;6295669;22;20118;-85
2023/10/13 13:04:03;;;;;;;14.30;6.18;;;19.50;99.90;;;;;;6269602;22;20064;-85
2023/10/13 13:06:32;;;;;;;12.40;5.55;;;19.50;99.90;;;;;;6269502;22;20482;-85
2023/10/13 13:09:00;;;;;;;15.77;5.65;;;19.50;99.90;;;;;;6268638;22;20293;-85
2023/10/13 13:11:28;;;;;;;12.52;6.05;;;19.50;99.90;;;;;;6270217;22;20015;-86
2023/10/13 13:13:54;;;;;;;17.58;6.15;;;19.50;99.90;;;;;;6269970;22;20340;-85
2023/10/13 13:16:23;;;;;;;17.02;6.07;;;19.40;99.90;;;;;;6269763;22;20332;-85
2023/10/13 13:18:55;;;;;;;12.20;6.13;;;19.40;99.90;;;;;;6269450;22;20047;-84
2023/10/13 13:21:24;;;;;;;13.70;5.80;;;19.30;99.90;;;;;;6296008;22;20012;-85
2023/10/13 13:23:50;;;;;;;13.00;6.20;;;19.20;99.90;;;;;;6268558;22;20015;-84
2023/10/13 13:26:17;;;;;;;11.95;5.63;;;19.10;99.90;;;;;;6296185;22;20084;-85
2023/10/13 13:28:43;;;;;;;13.20;5.97;;;19.10;99.90;;;;;;6269173;22;20015;-85
2023/10/13 13:31:12;;;;;;;12.63;5.43;;;19.00;99.90;;;;;;6294664;22;20208;-84
2023/10/13 13:33:43;;;;;;;16.70;6.28;;;19.00;99.90;;;;;;6268660;22;20075;-85
2023/10/13 13:36:15;;;;;;;12.88;6.40;;;19.00;99.90;;;;;;6269488;22;20364;-85
2023/10/13 13:38:41;;;;;;;21.15;6.97;;;18.90;99.90;;;;;;6268482;22;20336;-85
2023/10/13 13:41:17;;;;;;;13.38;5.93;;;18.90;99.90;;;;;;6295029;22;20019;-85
2023/10/13 13:46:29;;;;;;;15.00;6.13;;;18.90;99.90;;;;;;6295270;22;20057;-85
2023/10/13 13:48:59;;;;;;;14.27;6.35;;;18.90;99.90;;;;;;6268869;22;20463;-86
2023/10/13 13:51:28;;;;;;;18.15;6.85;;;18.90;99.90;;;;;;6269428;22;20012;-85
2023/10/13 13:53:58;;;;;;;13.52;6.25;;;18.90;99.90;;;;;;6268392;22;20018;-85
2023/10/13 13:56:28;;;;;;;14.70;6.20;;;18.90;99.90;;;;;;6269643;22;20003;-85
2023/10/13 13:58:57;;;;;;;10.00;6.03;;;18.90;99.90;;;;;;6268238;22;20012;-85
2023/10/13 14:01:25;;;;;;;14.20;6.30;;;18.90;99.90;;;;;;6269241;22;20402;-85
2023/10/13 14:03:52;;;;;;;11.80;6.40;;;18.90;99.90;;;;;;6268827;22;20015;-85
2023/10/13 14:06:26;;;;;;;11.68;5.60;;;18.80;99.90;;;;;;6269200;22;20135;-84
2023/10/13 14:09:04;;;;;;;15.98;6.63;;;18.90;99.90;;;;;;6268525;22;20107;-85
2023/10/13 14:14:12;;;;;;;22.88;6.78;;;18.80;99.90;;;;;;6294779;22;20011;-86
2023/10/13 14:16:44;;;;;;;12.23;6.22;;;18.90;99.90;;;;;;6268492;22;20018;-85
2023/10/13 14:19:11;;;;;;;19.98;6.82;;;18.90;99.90;;;;;;6267802;22;20018;-85
2023/10/13 14:21:37;;;;;;;15.63;6.72;;;18.90;99.90;;;;;;6269052;22;20030;-85
2023/10/13 14:24:12;;;;;;;15.30;5.85;;;18.90;99.90;;;;;;6267534;22;20506;-85
2023/10/13 14:26:38;;;;;;;10.35;6.15;;;18.80;99.90;;;;;;6268212;22;20354;-85
2023/10/13 14:29:07;;;;;;;14.80;6.97;;;18.80;99.90;;;;;;6293866;22;20016;-86
2023/10/13 14:31:36;;;;;;;17.65;7.15;;;18.80;99.90;;;;;;6268354;22;20127;-85
2023/10/13 14:34:02;;;;;;;11.23;6.15;;;18.70;99.90;;;;;;6294474;22;20034;-86
2023/10/13 14:36:34;;;;;;;20.25;6.80;;;18.70;99.90;;;;;;6268592;22;20015;-85
2023/10/13 14:39:00;;;;;;;19.15;7.47;;;18.80;99.90;;;;;;6267408;22;20129;-85
2023/10/13 14:41:26;;;;;;;15.75;6.93;;;18.80;99.90;;;;;;6269430;22;20481;-85
2023/10/13 14:43:52;;;;;;;21.50;6.97;;;18.80;99.90;;;;;;6267854;22;20019;-85
2023/10/13 14:46:25;;;;;;;16.13;6.45;;;18.80;99.90;;;;;;6268889;22;20743;-85
2023/10/13 14:48:54;;;;;;;14.63;5.90;;;18.80;99.90;;;;;;6268617;22;20029;-86
2023/10/13 14:51:20;;;;;;;13.05;6.65;;;18.90;99.90;;;;;;6268686;22;20492;-85
2023/10/13 14:53:47;;;;;;;12.60;6.32;;;18.90;99.90;;;;;;6267933;22;20007;-85
2023/10/13 14:56:17;;;;;;;16.83;6.55;;;18.90;99.90;;;;;;6268994;22;20098;-85
2023/10/13 14:58:44;;;;;;;19.83;6.50;;;18.90;99.90;;;;;;6293792;22;20046;-85
2023/10/13 15:01:18;;;;;;;17.85;7.25;;;18.80;99.90;;;;;;6294423;22;20022;-85
2023/10/13 15:03:48;;;;;;;15.13;6.25;;;18.90;99.90;;;;;;6268178;22;20068;-85
2023/10/13 15:06:20;;;;;;;15.50;6.03;;;18.80;99.90;;;;;;6265442;22;20425;-85
2023/10/13 15:08:47;;;;;;;17.42;6.55;;;18.80;99.90;;;;;;6211689;22;20062;-85
2023/10/13 15:11:13;;;;;;;13.88;6.63;;;18.70;99.90;;;;;;6212518;22;20018;-85
2023/10/13 15:13:42;;;;;;;13.25;6.55;;;18.80;99.90;;;;;;6211733;22;20456;-84
2023/10/13 15:16:16;;;;;;;19.55;6.75;;;18.70;99.90;;;;;;6211890;22;20095;-84
2023/10/13 15:18:46;;;;;;;18.95;7.40;;;18.50;99.90;;;;;;6238146;22;20081;-85
2023/10/13 15:21:35;;;;;;;17.17;8.80;;;18.40;99.90;;;;;;6238298;22;20090;-84
2023/10/13 15:24:13;;;;;;;16.48;6.88;;;18.30;99.90;;;;;;6211467;22;20008;-84
2023/10/13 15:26:41;;;;;;;14.90;5.97;;;18.20;99.90;;;;;;6212363;22;20019;-84
2023/10/13 15:29:09;;;;;;;14.80;5.97;;;18.10;99.90;;;;;;6211933;22;20061;-84
2023/10/13 15:34:12;;;;;;;16.40;5.90;;;18.00;99.90;;;;;;6237942;22;20410;-85
2023/10/13 15:36:39;;;;;;;13.43;6.05;;;18.00;99.90;;;;;;6212792;22;20015;-84
2023/10/13 15:39:08;;;;;;;16.08;6.20;;;17.90;99.90;;;;;;6212024;22;20081;-85
2023/10/13 15:41:40;;;;;;;20.95;6.85;;;17.90;99.90;;;;;;6212558;22;20026;-84
2023/10/13 15:44:10;;;;;;;19.10;8.27;;;17.90;99.90;;;;;;6212559;22;20015;-85
2023/10/13 15:46:37;;;;;;;14.52;7.88;;;17.80;99.90;;;;;;6212770;22;20020;-85
2023/10/13 15:49:05;;;;;;;17.58;7.13;;;17.80;99.90;;;;;;6237593;22;20312;-84
2023/10/13 15:51:32;;;;;;;16.52;8.38;;;17.80;99.90;;;;;;6212781;22;20491;-84
2023/10/13 15:53:59;;;;;;;15.60;8.02;;;17.80;99.90;;;;;;6211365;22;20008;-85
2023/10/13 15:56:25;;;;;;;15.70;7.65;;;17.80;99.90;;;;;;6214728;22;20035;-85
2023/10/13 15:58:51;;;;;;;18.15;8.15;;;17.80;99.90;;;;;;6213457;22;20113;-84
2023/10/13 16:01:16;;;;;;;14.55;8.52;;;17.80;99.90;;;;;;6214775;22;20066;-85
2023/10/13 16:03:43;;;;;;;21.27;8.18;;;17.80;99.90;;;;;;6213892;22;20474;-84
2023/10/13 16:06:13;;;;;;;15.68;7.43;;;17.80;99.90;;;;;;6214876;22;20011;-85
2023/10/13 16:08:42;;;;;;;13.85;7.95;;;17.80;99.90;;;;;;6212995;22;20341;-84
2023/10/13 16:11:17;;;;;;;15.70;7.25;;;17.80;99.90;;;;;;6214038;22;20020;-85
2023/10/13 16:13:53;;;;;;;15.65;7.60;;;17.80;99.90;;;;;;6213973;22;20007;-86
2023/10/13 16:16:23;;;;;;;12.90;6.88;;;17.80;99.90;;;;;;6214153;22;20293;-85
2023/10/13 16:18:50;;;;;;;14.57;7.05;;;17.80;99.90;;;;;;6214256;22;20016;-85
2023/10/13 16:21:16;;;;;;;20.92;7.30;;;17.70;99.90;;;;;;6214393;22;20033;-85
2023/10/13 16:23:45;;;;;;;13.77;6.97;;;17.70;99.90;;;;;;6213218;22;20329;-85
2023/10/13 16:26:11;;;;;;;14.25;7.13;;;17.70;99.90;;;;;;6214416;22;20015;-85
2023/10/13 16:28:38;;;;;;;15.40;7.25;;;17.70;99.90;;;;;;6213291;22;20399;-85
2023/10/13 16:31:05;;;;;;;15.77;6.75;;;17.80;99.90;;;;;;6239356;22;20098;-85
2023/10/13 16:33:35;;;;;;;16.90;6.53;;;17.70;99.90;;;;;;6214109;22;20016;-85
2023/10/13 16:36:05;;;;;;;13.95;6.88;;;17.80;99.90;;;;;;6214670;22;20019;-85